createdAt,value
2023-04-07T00:01:41.302Z,6.45
2023-04-07T00:04:08.703Z,6.34
2023-04-07T00:06:36.635Z,6.32
2023-04-07T00:09:03.867Z,6.19
2023-04-07T00:11:31.034Z,6.19
2023-04-07T00:13:58.232Z,6.17
2023-04-07T00:16:25.457Z,6.08
2023-04-07T00:18:52.680Z,6.07
2023-04-07T00:21:20.095Z,6.04
2023-04-07T00:23:47.687Z,6.04
2023-04-07T00:26:15.429Z,5.93
2023-04-07T00:28:44.424Z,5.87
2023-04-07T00:31:14.769Z,5.84
2023-04-07T00:33:42.043Z,5.82
2023-04-07T00:36:09.372Z,5.79
2023-04-07T00:38:36.643Z,5.74
2023-04-07T00:41:03.804Z,5.71
2023-04-07T00:43:31.086Z,5.73
2023-04-07T00:45:58.603Z,5.72
2023-04-07T00:48:26.059Z,5.67
2023-04-07T00:50:53.300Z,5.63
2023-04-07T00:53:21.062Z,5.59
2023-04-07T00:55:48.504Z,5.59
2023-04-07T00:58:15.966Z,5.45
2023-04-07T01:00:56.358Z,5.37
2023-04-07T01:03:39.930Z,5.34
2023-04-07T01:06:08.728Z,5.28
2023-04-07T01:08:46.018Z,5.22
2023-04-07T01:11:28.655Z,5.21
2023-04-07T01:13:59.904Z,5.21
2023-04-07T01:16:53.956Z,5.19
2023-04-07T01:19:40.291Z,5.21
2023-04-07T01:22:22.141Z,5.17
2023-04-07T01:25:44.067Z,5.12
2023-04-07T01:29:03.052Z,5.14
2023-04-07T01:31:31.067Z,5.18
2023-04-07T01:34:00.870Z,5.19
2023-04-07T01:36:29.576Z,5.08
2023-04-07T01:38:57.371Z,5.01
2023-04-07T01:41:26.745Z,5.00
2023-04-07T01:43:55.784Z,4.98
2023-04-07T01:46:24.856Z,4.93
2023-04-07T01:48:52.733Z,4.88
2023-04-07T01:51:22.659Z,4.89
2023-04-07T01:53:50.368Z,4.83
2023-04-07T01:56:17.881Z,4.84
2023-04-07T01:58:49.366Z,4.84
2023-04-07T02:01:19.458Z,4.81
2023-04-07T02:04:32.588Z,4.84
2023-04-07T02:07:22.440Z,4.77
2023-04-07T02:09:57.058Z,4.70
2023-04-07T02:12:27.722Z,4.68
2023-04-07T02:15:13.664Z,4.70
2023-04-07T02:17:49.187Z,4.68
2023-04-07T02:20:17.816Z,4.65
2023-04-07T02:22:45.170Z,4.64
2023-04-07T02:25:32.204Z,4.62
2023-04-07T02:28:01.516Z,4.61
2023-04-07T02:30:29.231Z,4.64
2023-04-07T02:32:57.390Z,4.65
2023-04-07T02:35:24.825Z,4.59
2023-04-07T02:37:52.059Z,4.65
2023-04-07T02:40:19.266Z,4.77
2023-04-07T02:42:47.612Z,4.82
2023-04-07T02:45:15.987Z,4.88
2023-04-07T02:47:43.267Z,4.94
2023-04-07T02:50:11.260Z,4.99
2023-04-07T02:52:38.456Z,5.04
2023-04-07T02:55:11.498Z,5.06
2023-04-07T02:57:39.340Z,5.05
2023-04-07T03:00:12.337Z,4.97
2023-04-07T03:02:57.709Z,4.88
2023-04-07T03:05:25.673Z,4.91
2023-04-07T03:07:52.868Z,4.98
2023-04-07T03:10:20.933Z,5.03
2023-04-07T03:12:48.071Z,5.05
2023-04-07T03:15:17.595Z,5.07
2023-04-07T03:17:47.887Z,5.03
2023-04-07T03:20:17.141Z,5.11
2023-04-07T03:22:44.742Z,5.17
2023-04-07T03:25:18.580Z,5.18
2023-04-07T03:27:49.067Z,5.19
2023-04-07T03:30:16.532Z,5.23
2023-04-07T03:32:45.707Z,5.18
2023-04-07T03:35:13.143Z,5.19
2023-04-07T03:37:40.316Z,5.21
2023-04-07T03:40:13.146Z,5.19
2023-04-07T03:42:41.141Z,5.16
2023-04-07T03:45:10.845Z,5.08
2023-04-07T03:47:42.813Z,5.04
2023-04-07T03:50:11.182Z,5.01
2023-04-07T03:52:48.723Z,4.84
2023-04-07T03:55:23.950Z,4.89
2023-04-07T03:57:55.316Z,4.85
2023-04-07T04:00:23.021Z,4.66
2023-04-07T04:03:04.938Z,4.65
2023-04-07T04:05:33.775Z,4.62
2023-04-07T04:08:01.158Z,4.63
2023-04-07T04:10:30.340Z,4.54
2023-04-07T04:13:03.688Z,4.49
2023-04-07T04:15:31.161Z,4.46
2023-04-07T04:17:59.341Z,4.47
2023-04-07T04:20:26.546Z,4.45
2023-04-07T04:22:53.714Z,4.45
2023-04-07T04:25:21.970Z,4.44
2023-04-07T04:27:53.425Z,4.40
2023-04-07T04:30:23.691Z,4.45
2023-04-07T04:32:55.502Z,4.51
2023-04-07T04:35:30.474Z,4.48
2023-04-07T04:38:17.123Z,4.45
2023-04-07T04:40:50.835Z,4.43
2023-04-07T04:43:22.527Z,4.48
2023-04-07T04:45:50.955Z,4.44
2023-04-07T04:48:20.000Z,4.45
2023-04-07T04:50:47.993Z,4.48
2023-04-07T04:53:15.748Z,4.40
2023-04-07T04:55:52.140Z,4.36
2023-04-07T04:58:24.004Z,4.43
2023-04-07T05:00:58.270Z,4.40
2023-04-07T05:03:31.485Z,4.41
2023-04-07T05:06:03.304Z,4.41
2023-04-07T05:08:30.737Z,4.47
2023-04-07T05:10:58.402Z,4.55
2023-04-07T05:13:30.992Z,4.60
2023-04-07T05:16:01.651Z,4.57
2023-04-07T05:18:30.471Z,4.64
2023-04-07T05:20:59.136Z,4.68
2023-04-07T05:23:28.032Z,4.76
2023-04-07T05:25:55.755Z,4.84
2023-04-07T05:28:24.898Z,4.92
2023-04-07T05:30:54.276Z,4.89
2023-04-07T05:33:26.671Z,4.94
2023-04-07T05:35:54.787Z,4.99
2023-04-07T05:38:22.389Z,5.06
2023-04-07T05:40:50.641Z,5.15
2023-04-07T05:43:25.909Z,5.28
2023-04-07T05:45:53.131Z,5.40
2023-04-07T05:48:21.561Z,5.52
2023-04-07T05:50:49.382Z,5.57
2023-04-07T05:53:18.793Z,5.57
2023-04-07T05:55:46.621Z,5.59
2023-04-07T05:58:23.133Z,5.60
2023-04-07T06:00:53.976Z,5.64
2023-04-07T06:03:21.364Z,5.61
2023-04-07T06:05:59.171Z,5.64
2023-04-07T06:08:27.158Z,5.65
2023-04-07T06:10:54.761Z,5.68
2023-04-07T06:13:22.055Z,5.75
2023-04-07T06:15:49.371Z,5.84
2023-04-07T06:18:16.787Z,5.92
2023-04-07T06:20:44.013Z,6.06
2023-04-07T06:23:11.283Z,6.11
2023-04-07T06:25:38.504Z,6.20
2023-04-07T06:28:06.265Z,6.24
2023-04-07T06:30:34.876Z,6.31
2023-04-07T06:33:02.064Z,6.38
2023-04-07T06:35:29.250Z,6.48
2023-04-07T06:37:56.967Z,6.60
2023-04-07T06:40:24.264Z,6.74
2023-04-07T06:42:51.935Z,6.90
2023-04-07T06:45:27.902Z,7.04
2023-04-07T06:47:55.279Z,7.08
2023-04-07T06:50:22.687Z,7.16
2023-04-07T06:52:49.861Z,7.15
2023-04-07T06:55:17.395Z,7.13
2023-04-07T06:57:44.686Z,7.13
2023-04-07T07:00:12.471Z,7.19
2023-04-07T07:02:39.915Z,7.27
2023-04-07T07:05:08.291Z,7.31
2023-04-07T07:07:35.454Z,7.38
2023-04-07T07:10:03.953Z,7.42
2023-04-07T07:12:32.383Z,7.55
2023-04-07T07:14:59.515Z,7.72
2023-04-07T07:17:26.742Z,7.90
2023-04-07T07:19:53.995Z,8.06
2023-04-07T07:22:21.277Z,8.26
2023-04-07T07:24:48.516Z,8.47
2023-04-07T07:27:15.878Z,8.64
2023-04-07T07:29:43.284Z,8.91
2023-04-07T07:32:10.648Z,9.03
2023-04-07T07:34:37.877Z,9.17
2023-04-07T07:37:05.375Z,9.30
2023-04-07T07:39:32.592Z,9.46
2023-04-07T07:41:59.801Z,9.66
2023-04-07T07:44:26.980Z,9.65
2023-04-07T07:46:54.222Z,9.85
2023-04-07T07:49:21.876Z,10.30
2023-04-07T07:51:49.209Z,10.56
2023-04-07T07:54:16.927Z,10.67
2023-04-07T07:56:44.191Z,10.88
2023-04-07T07:59:11.489Z,10.79
2023-04-07T08:01:38.833Z,10.86
2023-04-07T08:04:06.098Z,10.79
2023-04-07T08:06:33.473Z,10.67
2023-04-07T08:09:00.861Z,10.63
2023-04-07T08:11:28.088Z,10.51
2023-04-07T08:13:55.950Z,10.06
2023-04-07T08:16:24.135Z,9.54
2023-04-07T08:18:51.730Z,9.66
2023-04-07T08:21:20.014Z,9.61
2023-04-07T08:23:47.324Z,9.72
2023-04-07T08:26:14.721Z,9.99
2023-04-07T08:28:42.801Z,10.21
2023-04-07T08:31:09.970Z,10.34
2023-04-07T08:33:37.285Z,10.31
2023-04-07T08:36:05.396Z,10.38
2023-04-07T08:38:33.140Z,10.52
2023-04-07T08:41:09.047Z,10.47
2023-04-07T08:43:38.855Z,10.01
2023-04-07T08:46:08.977Z,10.22
2023-04-07T08:48:39.049Z,10.21
2023-04-07T08:51:10.353Z,10.09
2023-04-07T08:53:51.663Z,10.21
2023-04-07T08:56:21.416Z,10.35
2023-04-07T08:58:49.530Z,10.59
2023-04-07T09:01:18.305Z,10.57
2023-04-07T09:03:47.206Z,10.50
2023-04-07T09:06:15.352Z,10.50
2023-04-07T09:08:42.577Z,10.53
2023-04-07T09:11:09.798Z,10.78
2023-04-07T09:13:37.072Z,10.77
2023-04-07T09:16:04.894Z,10.65
2023-04-07T09:18:32.147Z,10.91
2023-04-07T09:21:05.690Z,10.64
2023-04-07T09:23:39.965Z,10.92
2023-04-07T09:26:28.289Z,10.47
2023-04-07T09:29:00.599Z,10.62
2023-04-07T09:31:50.782Z,11.05
2023-04-07T09:34:41.231Z,11.29
2023-04-07T09:37:11.983Z,11.59
2023-04-07T09:39:52.030Z,11.84
2023-04-07T09:42:21.469Z,11.95
2023-04-07T09:44:48.867Z,12.08
2023-04-07T09:47:16.094Z,12.29
2023-04-07T09:49:56.013Z,12.45
2023-04-07T09:52:49.536Z,12.48
2023-04-07T09:55:17.470Z,12.34
2023-04-07T09:57:45.473Z,12.32
2023-04-07T10:00:13.748Z,12.45
2023-04-07T10:02:42.250Z,12.52
2023-04-07T10:05:11.437Z,12.70
2023-04-07T10:07:39.988Z,12.98
2023-04-07T10:10:09.111Z,13.26
2023-04-07T10:12:38.707Z,13.34
2023-04-07T10:15:07.259Z,13.33
2023-04-07T10:17:37.209Z,13.35
2023-04-07T10:20:07.502Z,13.52
2023-04-07T10:22:37.995Z,13.65
2023-04-07T10:25:11.485Z,13.73
2023-04-07T10:27:58.205Z,13.97
2023-04-07T10:30:31.614Z,13.88
2023-04-07T10:32:59.465Z,14.43
2023-04-07T10:35:28.342Z,14.29
2023-04-07T10:38:08.098Z,14.75
2023-04-07T10:40:37.278Z,15.16
2023-04-07T10:43:15.097Z,15.21
2023-04-07T10:45:48.592Z,15.17
2023-04-07T10:48:19.284Z,15.31
2023-04-07T10:51:07.606Z,14.94
2023-04-07T10:53:36.146Z,15.21
2023-04-07T10:56:03.558Z,15.29
2023-04-07T10:58:33.214Z,15.78
2023-04-07T11:01:06.455Z,15.95
2023-04-07T11:03:52.531Z,16.43
2023-04-07T11:06:20.574Z,16.74
2023-04-07T11:08:50.573Z,16.07
2023-04-07T11:11:38.961Z,16.14
2023-04-07T11:14:06.641Z,16.04
2023-04-07T11:16:45.417Z,15.60
2023-04-07T11:19:12.724Z,15.71
2023-04-07T11:21:40.008Z,16.38
2023-04-07T11:24:07.181Z,17.84
2023-04-07T11:26:42.226Z,19.25
2023-04-07T11:29:12.002Z,20.17
2023-04-07T11:31:39.877Z,19.88
2023-04-07T11:34:07.577Z,20.95
2023-04-07T11:36:40.467Z,19.45
2023-04-07T11:39:23.603Z,17.73
2023-04-07T11:41:51.460Z,16.26
2023-04-07T11:44:18.782Z,15.81
2023-04-07T11:47:03.778Z,15.46
2023-04-07T11:49:32.354Z,15.20
2023-04-07T11:52:09.399Z,15.06
2023-04-07T11:54:51.900Z,14.84
2023-04-07T11:57:29.675Z,14.94
2023-04-07T12:00:14.226Z,14.95
2023-04-07T12:02:42.113Z,15.25
2023-04-07T12:05:10.551Z,15.19
2023-04-07T12:07:40.525Z,15.23
2023-04-07T12:10:23.723Z,15.30
2023-04-07T12:12:51.546Z,14.93
2023-04-07T12:15:19.010Z,14.79
2023-04-07T12:17:48.553Z,15.22
2023-04-07T12:20:16.737Z,15.31
2023-04-07T12:22:43.936Z,15.59
2023-04-07T12:25:11.360Z,15.66
2023-04-07T12:27:42.728Z,16.04
2023-04-07T12:30:12.780Z,15.93
2023-04-07T12:32:40.497Z,16.61
2023-04-07T12:35:08.060Z,16.99
2023-04-07T12:37:35.734Z,16.86
2023-04-07T12:40:03.967Z,17.15
2023-04-07T12:42:31.254Z,17.63
2023-04-07T12:44:58.420Z,17.87
2023-04-07T12:47:25.947Z,18.03
2023-04-07T12:49:53.190Z,17.64
2023-04-07T12:52:20.428Z,17.37
2023-04-07T12:54:47.700Z,17.11
2023-04-07T12:57:15.992Z,17.61
2023-04-07T12:59:43.033Z,17.63
2023-04-07T13:02:11.832Z,17.54
2023-04-07T13:04:43.399Z,17.38
2023-04-07T13:07:10.556Z,16.90
2023-04-07T13:09:37.855Z,16.49
2023-04-07T13:12:05.089Z,16.97
2023-04-07T13:14:32.311Z,17.06
2023-04-07T13:16:59.481Z,17.11
2023-04-07T13:19:26.615Z,17.53
2023-04-07T13:21:53.787Z,17.61
2023-04-07T13:24:21.876Z,17.71
2023-04-07T13:26:49.209Z,17.93
2023-04-07T13:29:16.970Z,17.68
2023-04-07T13:31:46.941Z,17.33
2023-04-07T13:34:14.719Z,17.49
2023-04-07T13:36:42.461Z,16.89
2023-04-07T13:39:09.632Z,16.79
2023-04-07T13:41:36.740Z,16.82
2023-04-07T13:44:03.881Z,16.95
2023-04-07T13:46:31.164Z,16.83
2023-04-07T13:48:58.542Z,17.06
2023-04-07T13:51:25.821Z,16.76
2023-04-07T13:53:53.033Z,16.86
2023-04-07T13:56:20.227Z,17.24
2023-04-07T13:58:47.941Z,16.63
2023-04-07T14:01:15.414Z,16.51
2023-04-07T14:03:42.961Z,15.80
2023-04-07T14:06:10.368Z,15.75
2023-04-07T14:08:37.519Z,16.62
2023-04-07T14:11:04.666Z,16.06
2023-04-07T14:13:31.921Z,16.15
2023-04-07T14:15:59.260Z,15.24
2023-04-07T14:18:28.014Z,14.88
2023-04-07T14:20:55.178Z,14.66
2023-04-07T14:23:33.947Z,14.82
2023-04-07T14:26:04.256Z,15.07
2023-04-07T14:28:31.868Z,15.15
2023-04-07T14:30:59.066Z,14.73
2023-04-07T14:33:26.637Z,14.75
2023-04-07T14:35:53.875Z,14.26
2023-04-07T14:38:24.296Z,14.42
2023-04-07T14:40:52.950Z,15.18
2023-04-07T14:43:20.472Z,14.89
2023-04-07T14:45:47.651Z,14.13
2023-04-07T14:48:14.843Z,14.18
2023-04-07T14:50:42.036Z,13.56
2023-04-07T14:53:09.341Z,13.52
2023-04-07T14:55:37.011Z,13.50
2023-04-07T14:58:04.129Z,13.89
2023-04-07T15:00:31.458Z,14.13
2023-04-07T15:02:58.884Z,13.41
2023-04-07T15:05:27.951Z,13.48
2023-04-07T15:07:55.245Z,13.54
2023-04-07T15:10:22.466Z,12.99
2023-04-07T15:12:50.320Z,12.53
2023-04-07T15:15:18.065Z,13.33
2023-04-07T15:17:45.555Z,12.87
2023-04-07T15:20:13.510Z,12.52
2023-04-07T15:22:40.815Z,13.43
2023-04-07T15:25:08.669Z,13.62
2023-04-07T15:27:35.950Z,13.69
2023-04-07T15:30:03.835Z,14.42
2023-04-07T15:32:32.092Z,14.74
2023-04-07T15:34:59.277Z,13.10
2023-04-07T15:37:26.854Z,12.26
2023-04-07T15:39:54.346Z,12.94
2023-04-07T15:42:21.522Z,12.96
2023-04-07T15:44:49.982Z,12.20
2023-04-07T15:47:17.126Z,12.20
2023-04-07T15:49:44.311Z,13.15
2023-04-07T15:52:13.520Z,13.12
2023-04-07T15:54:40.735Z,13.18
2023-04-07T15:57:07.950Z,13.08
2023-04-07T15:59:36.131Z,12.66
2023-04-07T16:02:03.409Z,13.24
2023-04-07T16:04:30.737Z,13.39
2023-04-07T16:06:57.898Z,13.38
2023-04-07T16:09:25.821Z,13.54
2023-04-07T16:11:53.015Z,13.27
2023-04-07T16:14:20.558Z,12.90
2023-04-07T16:16:47.794Z,13.46
2023-04-07T16:19:15.107Z,13.86
2023-04-07T16:21:42.609Z,14.29
2023-04-07T16:24:09.836Z,14.03
2023-04-07T16:26:37.003Z,13.90
2023-04-07T16:29:04.120Z,14.10
2023-04-07T16:31:31.285Z,14.45
2023-04-07T16:33:58.522Z,14.50
2023-04-07T16:36:26.555Z,14.45
2023-04-07T16:38:53.872Z,14.69
2023-04-07T16:41:21.893Z,14.56
2023-04-07T16:43:49.173Z,14.35
2023-04-07T16:46:16.512Z,14.34
2023-04-07T16:48:43.758Z,14.09
2023-04-07T16:51:11.096Z,13.95
2023-04-07T16:53:38.485Z,13.79
2023-04-07T16:56:05.892Z,13.39
2023-04-07T16:58:33.065Z,12.06
2023-04-07T17:01:00.452Z,11.78
2023-04-07T17:03:27.752Z,12.05
2023-04-07T17:05:55.023Z,11.78
2023-04-07T17:08:22.318Z,11.97
2023-04-07T17:10:49.490Z,12.60
2023-04-07T17:13:16.861Z,12.08
2023-04-07T17:15:43.972Z,11.86
2023-04-07T17:18:11.285Z,11.29
2023-04-07T17:20:38.652Z,11.09
2023-04-07T17:23:05.823Z,11.65
2023-04-07T17:25:33.036Z,11.22
2023-04-07T17:28:00.267Z,10.69
2023-04-07T17:30:27.425Z,11.02
2023-04-07T17:32:54.598Z,11.44
2023-04-07T17:35:22.635Z,10.84
2023-04-07T17:37:50.772Z,10.90
2023-04-07T17:40:18.378Z,11.06
2023-04-07T17:42:45.728Z,10.98
2023-04-07T17:45:12.957Z,10.71
2023-04-07T17:47:40.431Z,10.71
2023-04-07T17:50:09.086Z,11.07
2023-04-07T17:52:36.289Z,10.60
2023-04-07T17:55:03.840Z,10.79
2023-04-07T17:57:32.834Z,10.68
2023-04-07T18:00:00.018Z,10.59
2023-04-07T18:02:27.460Z,10.40
2023-04-07T18:04:56.196Z,10.48
2023-04-07T18:07:23.851Z,10.53
2023-04-07T18:09:51.152Z,10.26
2023-04-07T18:12:18.691Z,10.32
2023-04-07T18:14:45.908Z,10.38
2023-04-07T18:17:13.200Z,10.32
2023-04-07T18:19:40.476Z,10.45
2023-04-07T18:22:09.753Z,10.26
2023-04-07T18:24:37.202Z,10.29
2023-04-07T18:27:05.372Z,10.22
2023-04-07T18:29:32.577Z,10.29
2023-04-07T18:31:59.722Z,10.26
2023-04-07T18:34:26.953Z,10.14
2023-04-07T18:36:54.112Z,10.31
2023-04-07T18:39:22.029Z,10.02
2023-04-07T18:41:49.786Z,9.97
2023-04-07T18:44:17.443Z,10.03
2023-04-07T18:46:46.032Z,10.19
2023-04-07T18:49:13.473Z,10.14
2023-04-07T18:51:42.154Z,10.05
2023-04-07T18:54:09.411Z,10.09
2023-04-07T18:56:36.769Z,9.89
2023-04-07T18:59:04.043Z,9.82
2023-04-07T19:01:31.424Z,9.84
2023-04-07T19:03:58.757Z,9.76
2023-04-07T19:06:26.395Z,9.71
2023-04-07T19:08:53.734Z,9.72
2023-04-07T19:11:20.915Z,9.70
2023-04-07T19:13:49.358Z,9.80
2023-04-07T19:16:16.934Z,9.78
2023-04-07T19:18:44.245Z,9.67
2023-04-07T19:21:13.314Z,9.59
2023-04-07T19:23:43.643Z,9.43
2023-04-07T19:26:11.701Z,9.41
2023-04-07T19:28:41.093Z,9.51
2023-04-07T19:31:08.687Z,9.39
2023-04-07T19:33:36.755Z,9.33
2023-04-07T19:36:04.863Z,9.35
2023-04-07T19:38:32.128Z,9.32
2023-04-07T19:40:59.377Z,9.39
2023-04-07T19:43:26.565Z,9.44
2023-04-07T19:45:54.220Z,9.49
2023-04-07T19:48:21.465Z,9.47
2023-04-07T19:50:49.598Z,9.46
2023-04-07T19:53:17.945Z,9.49
2023-04-07T19:55:47.040Z,9.52
2023-04-07T19:58:17.021Z,9.46
2023-04-07T20:00:45.635Z,9.34
2023-04-07T20:03:13.061Z,9.21
2023-04-07T20:05:40.405Z,9.16
2023-04-07T20:08:07.562Z,9.08
2023-04-07T20:10:34.750Z,9.02
2023-04-07T20:13:01.926Z,8.98
2023-04-07T20:15:29.653Z,8.91
2023-04-07T20:17:56.801Z,8.85
2023-04-07T20:20:24.162Z,8.84
2023-04-07T20:22:51.417Z,8.78
2023-04-07T20:25:18.759Z,8.73
2023-04-07T20:27:48.952Z,8.74
2023-04-07T20:30:16.793Z,8.81
2023-04-07T20:32:45.939Z,8.85
2023-04-07T20:35:13.469Z,8.83
2023-04-07T20:37:40.812Z,8.81
2023-04-07T20:40:09.160Z,8.80
2023-04-07T20:42:36.790Z,8.73
2023-04-07T20:45:06.314Z,8.71
2023-04-07T20:47:36.019Z,8.71
2023-04-07T20:50:03.496Z,8.69
2023-04-07T20:52:30.732Z,8.64
2023-04-07T20:54:58.302Z,8.58
2023-04-07T20:57:25.487Z,8.57
2023-04-07T20:59:52.819Z,8.56
2023-04-07T21:02:20.308Z,8.54
2023-04-07T21:04:47.884Z,8.54
2023-04-07T21:07:15.125Z,8.48
2023-04-07T21:09:42.277Z,8.43
2023-04-07T21:12:10.477Z,8.41
2023-04-07T21:14:37.630Z,8.40
2023-04-07T21:17:04.768Z,8.33
2023-04-07T21:19:32.349Z,8.32
2023-04-07T21:22:00.571Z,8.32
2023-04-07T21:24:29.571Z,8.31
2023-04-07T21:26:56.759Z,8.32
2023-04-07T21:29:24.500Z,8.32
2023-04-07T21:31:51.688Z,8.30
2023-04-07T21:34:18.885Z,8.20
2023-04-07T21:36:46.092Z,8.12
2023-04-07T21:39:13.208Z,8.03
2023-04-07T21:41:40.324Z,7.99
2023-04-07T21:44:10.518Z,7.93
2023-04-07T21:46:38.003Z,7.90
2023-04-07T21:49:05.212Z,7.83
2023-04-07T21:51:33.661Z,7.81
2023-04-07T21:54:01.409Z,7.78
2023-04-07T21:56:29.168Z,7.71
2023-04-07T21:58:56.814Z,7.66
2023-04-07T22:01:24.153Z,7.64
2023-04-07T22:03:51.667Z,7.63
2023-04-07T22:06:18.962Z,7.55
2023-04-07T22:08:54.928Z,7.48
2023-04-07T22:11:28.166Z,7.41
2023-04-07T22:13:55.423Z,7.36
2023-04-07T22:16:22.609Z,7.35
2023-04-07T22:18:50.625Z,7.34
2023-04-07T22:21:18.093Z,7.33
2023-04-07T22:23:45.467Z,7.30
2023-04-07T22:26:13.883Z,7.35
2023-04-07T22:28:41.552Z,7.45
2023-04-07T22:31:08.732Z,7.51
2023-04-07T22:33:36.033Z,7.51
2023-04-07T22:36:04.038Z,7.45
2023-04-07T22:38:31.353Z,7.41
2023-04-07T22:40:58.501Z,7.36
2023-04-07T22:43:25.679Z,7.34
2023-04-07T22:45:52.811Z,7.27
2023-04-07T22:48:20.000Z,7.21
2023-04-07T22:50:47.204Z,7.19
2023-04-07T22:53:14.370Z,7.15
2023-04-07T22:55:41.710Z,7.07
2023-04-07T22:58:08.915Z,7.02
2023-04-07T23:00:36.283Z,6.98
2023-04-07T23:03:03.619Z,6.90
2023-04-07T23:05:30.982Z,6.90
2023-04-07T23:07:58.575Z,6.86
2023-04-07T23:10:25.766Z,6.80
2023-04-07T23:12:56.374Z,6.77
2023-04-07T23:15:23.673Z,6.74
2023-04-07T23:17:50.919Z,6.67
2023-04-07T23:20:18.378Z,6.65
2023-04-07T23:22:45.656Z,6.62
2023-04-07T23:25:12.795Z,6.57
2023-04-07T23:27:40.003Z,6.48
2023-04-07T23:30:08.628Z,6.43
2023-04-07T23:32:35.667Z,6.38
2023-04-07T23:35:02.877Z,6.39
2023-04-07T23:37:29.994Z,6.40
2023-04-07T23:39:57.109Z,6.36
2023-04-07T23:42:24.385Z,6.34
2023-04-07T23:44:51.558Z,6.37
2023-04-07T23:47:18.706Z,6.38
2023-04-07T23:49:45.860Z,6.37
2023-04-07T23:52:13.021Z,6.35
2023-04-07T23:54:40.180Z,6.37
2023-04-07T23:57:07.451Z,6.40
2023-04-07T23:59:34.640Z,6.41
